createdAt,value
2018-08-25T00:00:29.161Z,17.24
2018-08-25T00:01:29.153Z,17.18
2018-08-25T00:02:29.112Z,17.18
2018-08-25T00:03:29.131Z,17.15
2018-08-25T00:04:29.141Z,17.20
2018-08-25T00:05:29.113Z,17.17
2018-08-25T00:06:29.064Z,17.17
2018-08-25T00:07:29.089Z,17.12
2018-08-25T00:08:29.074Z,17.20
2018-08-25T00:09:29.090Z,17.15
2018-08-25T00:10:29.018Z,17.14
2018-08-25T00:11:29.044Z,17.05
2018-08-25T00:12:29.036Z,17.09
2018-08-25T00:13:29.041Z,17.20
2018-08-25T00:14:29.010Z,17.17
2018-08-25T00:15:29.031Z,17.05
2018-08-25T00:16:28.958Z,17.06
2018-08-25T00:17:28.932Z,17.18
2018-08-25T00:18:28.966Z,17.14
2018-08-25T00:19:28.962Z,17.03
2018-08-25T00:20:29.070Z,17.03
2018-08-25T00:21:28.938Z,17.00
2018-08-25T00:22:28.934Z,17.05
2018-08-25T00:23:28.915Z,17.00
2018-08-25T00:24:28.925Z,17.05
2018-08-25T00:25:28.933Z,16.96
2018-08-25T00:26:28.885Z,17.02
2018-08-25T00:27:28.875Z,17.02
2018-08-25T00:28:28.814Z,17.03
2018-08-25T00:29:28.845Z,17.02
2018-08-25T00:30:28.869Z,16.99
2018-08-25T00:31:28.836Z,16.92
2018-08-25T00:32:28.842Z,16.92
2018-08-25T00:33:28.821Z,16.88
2018-08-25T00:34:28.816Z,16.88
2018-08-25T00:35:28.786Z,16.87
2018-08-25T00:36:28.772Z,16.84
2018-08-25T00:37:28.778Z,16.80
2018-08-25T00:38:28.757Z,16.82
2018-08-25T00:39:28.726Z,16.82
2018-08-25T00:40:28.727Z,16.85
2018-08-25T00:41:28.747Z,16.80
2018-08-25T00:42:28.713Z,16.80
2018-08-25T00:43:28.708Z,16.75
2018-08-25T00:44:28.671Z,16.73
2018-08-25T00:45:28.743Z,16.69
2018-08-25T00:46:28.643Z,16.72
2018-08-25T00:47:28.655Z,16.72
2018-08-25T00:48:28.655Z,16.66
2018-08-25T00:49:28.659Z,16.63
2018-08-25T00:50:28.622Z,16.67
2018-08-25T00:51:28.608Z,16.60
2018-08-25T00:52:28.602Z,16.67
2018-08-25T00:53:28.591Z,16.55
2018-08-25T00:54:28.553Z,16.51
2018-08-25T00:55:28.561Z,16.50
2018-08-25T00:56:28.555Z,16.57
2018-08-25T00:57:28.538Z,16.47
2018-08-25T00:58:28.530Z,16.52
2018-08-25T00:59:28.583Z,16.57
2018-08-25T01:00:28.518Z,16.48
2018-08-25T01:01:28.504Z,16.55
2018-08-25T01:02:28.488Z,16.55
2018-08-25T01:03:28.479Z,16.52
2018-08-25T01:04:28.500Z,16.54
2018-08-25T01:05:28.462Z,16.51
2018-08-25T01:06:28.456Z,16.48
2018-08-25T01:07:28.435Z,16.54
2018-08-25T01:08:28.425Z,16.54
2018-08-25T01:09:28.436Z,16.54
2018-08-25T01:10:28.410Z,16.48
2018-08-25T01:11:28.343Z,16.48
2018-08-25T01:12:28.381Z,16.47
2018-08-25T01:13:28.464Z,16.51
2018-08-25T01:14:28.334Z,16.47
2018-08-25T01:15:28.399Z,16.55
2018-08-25T01:16:28.335Z,16.52
2018-08-25T01:17:28.325Z,16.47
2018-08-25T01:18:28.315Z,16.48
2018-08-25T01:19:28.403Z,16.48
2018-08-25T01:20:28.295Z,16.42
2018-08-25T01:21:28.289Z,16.45
2018-08-25T01:22:28.266Z,16.45
2018-08-25T01:23:28.218Z,16.41
2018-08-25T01:24:28.272Z,16.42
2018-08-25T01:25:28.193Z,16.36
2018-08-25T01:26:28.228Z,16.34
2018-08-25T01:27:28.223Z,16.30
2018-08-25T01:28:28.208Z,16.32
2018-08-25T01:29:28.223Z,16.34
2018-08-25T01:30:28.180Z,16.36
2018-08-25T01:31:28.170Z,16.36
2018-08-25T01:32:28.161Z,16.29
2018-08-25T01:33:28.108Z,16.33
2018-08-25T01:34:28.120Z,16.33
2018-08-25T01:35:28.126Z,16.32
2018-08-25T01:36:28.118Z,16.37
2018-08-25T01:37:28.109Z,16.33
2018-08-25T01:38:28.095Z,16.33
2018-08-25T01:39:28.091Z,16.32
2018-08-25T01:40:28.144Z,16.30
2018-08-25T01:41:28.099Z,16.26
2018-08-25T01:42:28.058Z,16.30
2018-08-25T01:43:28.080Z,16.22
2018-08-25T01:44:27.987Z,16.25
2018-08-25T01:45:28.041Z,16.25
2018-08-25T01:46:28.003Z,16.26
2018-08-25T01:47:27.998Z,16.23
2018-08-25T01:48:28.003Z,16.22
2018-08-25T01:49:27.972Z,16.14
2018-08-25T01:50:28.285Z,16.17
2018-08-25T01:51:27.980Z,16.17
2018-08-25T01:52:27.943Z,16.16
2018-08-25T01:53:27.886Z,16.26
2018-08-25T01:54:27.919Z,16.18
2018-08-25T01:55:27.926Z,16.16
2018-08-25T01:56:27.899Z,16.14
2018-08-25T01:57:27.892Z,16.11
2018-08-25T01:58:27.873Z,16.11
2018-08-25T01:59:27.857Z,16.16
2018-08-25T02:00:27.874Z,16.16
2018-08-25T02:01:27.837Z,16.08
2018-08-25T02:02:27.832Z,16.14
2018-08-25T02:03:27.813Z,16.16
2018-08-25T02:04:27.764Z,16.13
2018-08-25T02:05:27.773Z,16.13
2018-08-25T02:06:27.786Z,16.06
2018-08-25T02:07:27.732Z,16.18
2018-08-25T02:08:27.725Z,16.08
2018-08-25T02:09:27.750Z,16.10
2018-08-25T02:10:27.774Z,16.08
2018-08-25T02:11:27.731Z,16.13
2018-08-25T02:12:27.800Z,16.10
2018-08-25T02:13:27.673Z,16.14
2018-08-25T02:14:27.696Z,16.18
2018-08-25T02:15:27.712Z,16.08
2018-08-25T02:16:27.689Z,16.14
2018-08-25T02:17:27.665Z,16.18
2018-08-25T02:18:27.615Z,16.17
2018-08-25T02:19:27.638Z,16.13
2018-08-25T02:20:27.618Z,16.26
2018-08-25T02:21:27.629Z,16.17
2018-08-25T02:22:27.654Z,16.18
2018-08-25T02:23:27.594Z,16.16
2018-08-25T02:24:27.591Z,16.25
2018-08-25T02:25:27.603Z,16.13
2018-08-25T02:26:27.604Z,16.06
2018-08-25T02:27:27.557Z,16.07
2018-08-25T02:28:27.547Z,16.07
2018-08-25T02:29:27.540Z,16.16
2018-08-25T02:30:27.546Z,16.17
2018-08-25T02:31:27.478Z,16.14
2018-08-25T02:32:27.472Z,16.08
2018-08-25T02:33:27.492Z,16.08
2018-08-25T02:34:27.488Z,16.08
2018-08-25T02:35:27.488Z,16.14
2018-08-25T02:36:27.460Z,16.04
2018-08-25T02:37:27.420Z,16.06
2018-08-25T02:38:27.455Z,16.16
2018-08-25T02:39:27.437Z,16.08
2018-08-25T02:40:27.441Z,16.14
2018-08-25T02:41:27.408Z,16.08
2018-08-25T02:42:27.402Z,16.07
2018-08-25T02:43:27.383Z,16.07
2018-08-25T02:44:27.378Z,16.14
2018-08-25T02:45:27.345Z,16.10
2018-08-25T02:46:27.358Z,16.07
2018-08-25T02:47:27.345Z,16.11
2018-08-25T02:48:27.331Z,16.10
2018-08-25T02:49:27.273Z,16.10
2018-08-25T02:50:27.332Z,16.04
2018-08-25T02:51:27.256Z,16.11
2018-08-25T02:52:27.288Z,16.14
2018-08-25T02:53:27.235Z,16.14
2018-08-25T02:54:27.270Z,16.10
2018-08-25T02:55:27.278Z,16.16
2018-08-25T02:56:27.247Z,16.10
2018-08-25T02:57:27.233Z,16.16
2018-08-25T02:58:27.224Z,16.10
2018-08-25T02:59:27.178Z,16.08
2018-08-25T03:00:27.226Z,16.10
2018-08-25T03:01:27.191Z,16.13
2018-08-25T03:02:27.179Z,16.10
2018-08-25T03:03:27.168Z,16.16
2018-08-25T03:04:27.116Z,16.13
2018-08-25T03:05:27.139Z,16.13
2018-08-25T03:06:27.140Z,16.10
2018-08-25T03:07:27.143Z,16.13
2018-08-25T03:08:27.117Z,15.99
2018-08-25T03:09:27.066Z,16.11
2018-08-25T03:10:27.123Z,16.01
2018-08-25T03:11:27.040Z,16.03
2018-08-25T03:12:27.075Z,16.01
2018-08-25T03:13:27.057Z,16.03
2018-08-25T03:14:27.051Z,16.01
2018-08-25T03:15:27.042Z,15.88
2018-08-25T03:16:27.061Z,15.86
2018-08-25T03:17:27.014Z,15.91
2018-08-25T03:18:27.008Z,15.74
2018-08-25T03:19:26.994Z,15.81
2018-08-25T03:20:26.987Z,15.71
2018-08-25T03:21:27.070Z,15.73
2018-08-25T03:22:26.961Z,15.59
2018-08-25T03:23:26.945Z,15.67
2018-08-25T03:24:26.936Z,15.51
2018-08-25T03:25:26.987Z,15.51
2018-08-25T03:26:26.940Z,15.49
2018-08-25T03:27:26.906Z,15.43
2018-08-25T03:28:26.902Z,15.49
2018-08-25T03:29:26.885Z,15.43
2018-08-25T03:30:26.870Z,15.35
2018-08-25T03:31:26.919Z,15.35
2018-08-25T03:32:26.805Z,15.37
2018-08-25T03:33:26.837Z,15.33
2018-08-25T03:34:26.840Z,15.35
2018-08-25T03:35:26.815Z,15.40
2018-08-25T03:36:26.836Z,15.30
2018-08-25T03:37:26.797Z,15.28
2018-08-25T03:38:26.794Z,15.27
2018-08-25T03:39:26.776Z,15.25
2018-08-25T03:40:26.761Z,15.27
2018-08-25T03:41:26.779Z,15.16
2018-08-25T03:42:26.695Z,15.22
2018-08-25T03:43:26.734Z,15.19
2018-08-25T03:44:26.721Z,15.15
2018-08-25T03:45:26.713Z,15.16
2018-08-25T03:46:26.728Z,15.18
2018-08-25T03:47:26.685Z,15.16
2018-08-25T03:48:26.679Z,15.22
2018-08-25T03:49:26.664Z,15.19
2018-08-25T03:50:26.615Z,15.13
2018-08-25T03:51:26.670Z,15.18
2018-08-25T03:52:26.644Z,15.01
2018-08-25T03:53:26.621Z,15.01
2018-08-25T03:54:26.562Z,15.01
2018-08-25T03:55:26.658Z,15.00
2018-08-25T03:56:26.608Z,14.93
2018-08-25T03:57:26.578Z,14.87
2018-08-25T03:58:26.567Z,14.90
2018-08-25T03:59:26.559Z,14.93
2018-08-25T04:00:26.544Z,14.85
2018-08-25T04:01:26.608Z,14.90
2018-08-25T04:02:26.529Z,14.85
2018-08-25T04:03:26.514Z,14.86
2018-08-25T04:04:26.506Z,14.90
2018-08-25T04:05:26.488Z,14.85
2018-08-25T04:06:26.516Z,14.95
2018-08-25T04:07:26.460Z,14.90
2018-08-25T04:08:26.560Z,14.86
2018-08-25T04:09:26.447Z,14.91
2018-08-25T04:10:26.432Z,14.86
2018-08-25T04:11:26.455Z,14.80
2018-08-25T04:12:26.412Z,14.85
2018-08-25T04:13:26.403Z,14.86
2018-08-25T04:14:26.355Z,14.78
2018-08-25T04:15:26.384Z,14.80
2018-08-25T04:16:26.387Z,14.86
2018-08-25T04:17:26.378Z,14.80
2018-08-25T04:18:26.477Z,14.78
2018-08-25T04:19:26.336Z,14.80
2018-08-25T04:20:26.335Z,14.86
2018-08-25T04:21:26.363Z,14.74
2018-08-25T04:22:26.359Z,14.86
2018-08-25T04:23:26.293Z,14.78
2018-08-25T04:24:26.317Z,14.82
2018-08-25T04:25:26.286Z,14.79
2018-08-25T04:26:26.291Z,14.79
2018-08-25T04:27:26.251Z,14.79
2018-08-25T04:28:26.255Z,14.86
2018-08-25T04:29:26.247Z,14.83
2018-08-25T04:30:26.217Z,14.82
2018-08-25T04:31:26.210Z,14.82
2018-08-25T04:32:26.247Z,14.74
2018-08-25T04:33:26.249Z,14.78
2018-08-25T04:34:26.195Z,14.86
2018-08-25T04:35:26.182Z,14.79
2018-08-25T04:36:26.156Z,14.85
2018-08-25T04:37:26.123Z,14.85
2018-08-25T04:38:26.140Z,14.85
2018-08-25T04:39:26.120Z,14.74
2018-08-25T04:40:26.112Z,14.80
2018-08-25T04:41:26.159Z,14.82
2018-08-25T04:42:26.117Z,14.71
2018-08-25T04:43:26.079Z,14.74
2018-08-25T04:44:26.063Z,14.66
2018-08-25T04:45:26.061Z,14.69
2018-08-25T04:46:26.050Z,14.71
2018-08-25T04:47:26.059Z,14.71
2018-08-25T04:48:26.023Z,14.72
2018-08-25T04:49:26.033Z,14.78
2018-08-25T04:50:26.008Z,14.75
2018-08-25T04:51:26.019Z,14.75
2018-08-25T04:52:26.002Z,14.72
2018-08-25T04:53:25.964Z,14.71
2018-08-25T04:54:25.983Z,14.71
2018-08-25T04:55:25.950Z,14.67
2018-08-25T04:56:25.934Z,14.67
2018-08-25T04:57:25.949Z,14.71
2018-08-25T04:58:25.916Z,14.71
2018-08-25T04:59:25.904Z,14.64
2018-08-25T05:00:25.894Z,14.67
2018-08-25T05:01:25.929Z,14.60
2018-08-25T05:02:25.895Z,14.63
2018-08-25T05:03:25.860Z,14.60
2018-08-25T05:04:25.849Z,14.66
2018-08-25T05:05:25.838Z,14.63
2018-08-25T05:06:25.823Z,14.69
2018-08-25T05:07:25.854Z,14.67
2018-08-25T05:08:25.826Z,14.67
2018-08-25T05:09:25.801Z,14.66
2018-08-25T05:10:25.799Z,14.63
2018-08-25T05:11:25.734Z,14.69
2018-08-25T05:12:25.785Z,14.71
2018-08-25T05:13:25.751Z,14.63
2018-08-25T05:14:25.740Z,14.72
2018-08-25T05:15:25.726Z,14.64
2018-08-25T05:16:25.719Z,14.78
2018-08-25T05:17:25.831Z,14.79
2018-08-25T05:18:25.697Z,14.82
2018-08-25T05:19:25.698Z,14.83
2018-08-25T05:20:25.673Z,14.82
2018-08-25T05:21:25.626Z,14.79
2018-08-25T05:22:25.676Z,14.75
2018-08-25T05:23:25.667Z,14.74
2018-08-25T05:24:25.634Z,14.75
2018-08-25T05:25:25.629Z,14.82
2018-08-25T05:26:25.629Z,14.75
2018-08-25T05:27:25.660Z,14.74
2018-08-25T05:28:25.596Z,14.64
2018-08-25T05:29:25.579Z,14.72
2018-08-25T05:30:25.568Z,14.78
2018-08-25T05:31:25.556Z,14.74
2018-08-25T05:32:25.565Z,14.80
2018-08-25T05:33:25.539Z,14.78
2018-08-25T05:34:25.522Z,14.78
2018-08-25T05:35:25.515Z,14.85
2018-08-25T05:36:25.506Z,14.82
2018-08-25T05:37:25.535Z,14.79
2018-08-25T05:38:25.482Z,14.83
2018-08-25T05:39:25.475Z,14.83
2018-08-25T05:40:25.464Z,14.80
2018-08-25T05:41:25.448Z,14.67
2018-08-25T05:42:25.471Z,14.59
2018-08-25T05:43:25.427Z,14.57
2018-08-25T05:44:25.431Z,14.57
2018-08-25T05:45:25.405Z,14.54
2018-08-25T05:46:25.392Z,14.54
2018-08-25T05:47:25.418Z,14.48
2018-08-25T05:48:25.381Z,14.45
2018-08-25T05:49:25.374Z,14.34
2018-08-25T05:50:25.349Z,14.29
2018-08-25T05:51:25.345Z,14.30
2018-08-25T05:52:25.361Z,14.29
2018-08-25T05:53:25.328Z,14.19
2018-08-25T05:54:25.339Z,14.27
2018-08-25T05:55:25.316Z,14.34
2018-08-25T05:56:25.289Z,14.34
2018-08-25T05:57:25.302Z,14.35
2018-08-25T05:58:25.281Z,14.34
2018-08-25T05:59:25.260Z,14.44
2018-08-25T06:00:25.247Z,14.45
2018-08-25T06:01:25.249Z,14.46
2018-08-25T06:02:25.266Z,14.49
2018-08-25T06:03:25.228Z,14.53
2018-08-25T06:04:25.202Z,14.53
2018-08-25T06:05:25.196Z,14.60
2018-08-25T06:06:25.263Z,14.52
2018-08-25T06:07:25.167Z,14.66
2018-08-25T06:08:25.185Z,14.67
2018-08-25T06:09:25.152Z,14.74
2018-08-25T06:10:25.152Z,14.72
2018-08-25T06:11:25.125Z,14.75
2018-08-25T06:12:25.134Z,14.80
2018-08-25T06:13:25.153Z,14.98
2018-08-25T06:14:25.186Z,15.00
2018-08-25T06:15:25.090Z,15.09
2018-08-25T06:16:25.041Z,15.16
2018-08-25T06:17:25.066Z,15.18
2018-08-25T06:18:25.076Z,15.04
2018-08-25T06:19:25.048Z,15.20
2018-08-25T06:20:25.064Z,15.22
2018-08-25T06:21:25.022Z,15.41
2018-08-25T06:22:24.974Z,15.35
2018-08-25T06:23:25.013Z,15.41
2018-08-25T06:24:25.020Z,15.46
2018-08-25T06:25:24.935Z,15.60
2018-08-25T06:26:24.969Z,15.58
2018-08-25T06:27:24.945Z,15.66
2018-08-25T06:28:24.965Z,15.78
2018-08-25T06:29:24.935Z,15.92
2018-08-25T06:30:24.958Z,15.92
2018-08-25T06:31:24.961Z,15.85
2018-08-25T06:32:24.855Z,15.86
2018-08-25T06:33:25.001Z,16.04
2018-08-25T06:34:24.872Z,16.11
2018-08-25T06:35:24.857Z,15.89
2018-08-25T06:36:24.833Z,15.89
2018-08-25T06:37:24.795Z,15.77
2018-08-25T06:38:24.874Z,15.78
2018-08-25T06:39:24.820Z,15.92
2018-08-25T06:40:24.810Z,15.99
2018-08-25T06:41:24.778Z,16.10
2018-08-25T06:42:24.786Z,16.36
2018-08-25T06:43:24.827Z,16.70
2018-08-25T06:44:24.767Z,16.82
2018-08-25T06:45:24.712Z,17.06
2018-08-25T06:46:24.696Z,17.51
2018-08-25T06:47:24.757Z,17.92
2018-08-25T06:48:24.820Z,18.05
2018-08-25T06:49:24.717Z,17.95
2018-08-25T06:50:24.720Z,18.28
2018-08-25T06:51:24.705Z,18.69
2018-08-25T06:52:24.711Z,18.96
2018-08-25T06:53:24.808Z,19.23
2018-08-25T06:54:24.664Z,19.38
2018-08-25T06:55:24.643Z,19.53
2018-08-25T06:56:24.638Z,19.75
2018-08-25T06:57:24.624Z,19.80
2018-08-25T06:58:24.637Z,19.32
2018-08-25T06:59:24.628Z,18.71
2018-08-25T07:00:24.600Z,18.26
2018-08-25T07:01:24.581Z,17.98
2018-08-25T07:02:24.569Z,17.84
2018-08-25T07:03:24.585Z,18.41
2018-08-25T07:04:24.550Z,18.41
2018-08-25T07:05:24.562Z,19.06
2018-08-25T07:06:24.485Z,19.46
2018-08-25T07:07:24.476Z,19.80
2018-08-25T07:08:24.541Z,20.00
2018-08-25T07:09:24.457Z,20.41
2018-08-25T07:10:24.488Z,20.81
2018-08-25T07:11:24.428Z,21.01
2018-08-25T07:12:24.461Z,21.31
2018-08-25T07:13:24.637Z,21.38
2018-08-25T07:14:24.444Z,21.49
2018-08-25T07:15:24.432Z,21.81
2018-08-25T07:16:24.415Z,21.99
2018-08-25T07:17:24.425Z,22.09
2018-08-25T07:18:24.418Z,22.17
2018-08-25T07:19:24.413Z,22.29
2018-08-25T07:20:24.373Z,22.35
2018-08-25T07:21:24.365Z,22.59
2018-08-25T07:22:24.416Z,22.69
2018-08-25T07:23:24.423Z,22.76
2018-08-25T07:24:24.331Z,22.48
2018-08-25T07:25:24.327Z,21.59
2018-08-25T07:26:24.311Z,21.13
2018-08-25T07:27:24.310Z,20.91
2018-08-25T07:28:24.334Z,20.96
2018-08-25T07:29:24.277Z,20.82
2018-08-25T07:30:24.265Z,21.06
2018-08-25T07:31:24.259Z,20.85
2018-08-25T07:32:24.247Z,20.81
2018-08-25T07:33:24.259Z,20.96
2018-08-25T07:34:24.231Z,20.87
2018-08-25T07:35:24.216Z,20.72
2018-08-25T07:36:24.201Z,20.94
2018-08-25T07:37:24.206Z,21.12
2018-08-25T07:38:24.295Z,21.45
2018-08-25T07:39:24.175Z,21.52
2018-08-25T07:40:24.165Z,21.77
2018-08-25T07:41:24.106Z,22.01
2018-08-25T07:42:24.140Z,22.26
2018-08-25T07:43:24.127Z,22.72
2018-08-25T07:44:24.148Z,21.73
2018-08-25T07:45:24.170Z,21.90
2018-08-25T07:46:24.101Z,22.29
2018-08-25T07:47:24.088Z,22.64
2018-08-25T07:48:24.077Z,22.94
2018-08-25T07:49:24.158Z,23.18
2018-08-25T07:50:24.051Z,23.63
2018-08-25T07:51:24.810Z,23.99
2018-08-25T07:52:24.033Z,24.21
2018-08-25T07:53:24.020Z,23.94
2018-08-25T07:54:24.093Z,23.52
2018-08-25T07:55:24.007Z,23.18
2018-08-25T07:56:23.968Z,23.03
2018-08-25T07:57:23.994Z,21.86
2018-08-25T07:58:23.938Z,22.04
2018-08-25T07:59:23.974Z,22.45
2018-08-25T08:00:23.967Z,22.49
2018-08-25T08:01:23.940Z,22.70
2018-08-25T08:02:23.929Z,22.54
2018-08-25T08:03:23.927Z,22.01
2018-08-25T08:04:23.891Z,22.01
2018-08-25T08:05:23.921Z,21.09
2018-08-25T08:06:23.844Z,20.90
2018-08-25T08:07:23.889Z,20.41
2018-08-25T08:08:23.817Z,19.92
2018-08-25T08:09:23.844Z,19.62
2018-08-25T08:10:23.808Z,19.49
2018-08-25T08:11:23.832Z,19.35
2018-08-25T08:12:23.910Z,18.99
2018-08-25T08:13:23.827Z,19.25
2018-08-25T08:14:23.805Z,19.06
2018-08-25T08:15:23.795Z,19.55
2018-08-25T08:16:23.792Z,19.68
2018-08-25T08:17:23.779Z,19.76
2018-08-25T08:18:23.768Z,19.55
2018-08-25T08:19:24.461Z,19.42
2018-08-25T08:20:23.746Z,19.30
2018-08-25T08:21:23.722Z,18.91
2018-08-25T08:22:23.700Z,18.74
2018-08-25T08:23:23.711Z,18.41
2018-08-25T08:24:23.744Z,18.76
2018-08-25T08:25:23.681Z,18.89
2018-08-25T08:26:23.674Z,19.32
2018-08-25T08:27:23.695Z,19.10
2018-08-25T08:28:23.651Z,18.94
2018-08-25T08:29:23.703Z,19.01
2018-08-25T08:30:23.629Z,19.25
2018-08-25T08:31:23.651Z,19.60
2018-08-25T08:32:23.623Z,19.60
2018-08-25T08:33:23.593Z,19.78
2018-08-25T08:34:23.605Z,19.94
2018-08-25T08:35:23.580Z,19.57
2018-08-25T08:36:23.519Z,19.27
2018-08-25T08:37:23.551Z,19.30
2018-08-25T08:38:23.556Z,19.65
2018-08-25T08:39:23.661Z,19.53
2018-08-25T08:40:23.527Z,19.67
2018-08-25T08:41:23.522Z,20.12
2018-08-25T08:42:23.563Z,20.26
2018-08-25T08:43:23.488Z,20.41
2018-08-25T08:44:23.466Z,20.33
2018-08-25T08:45:23.495Z,20.30
2018-08-25T08:46:23.469Z,20.50
2018-08-25T08:47:23.480Z,20.38
2018-08-25T08:48:23.475Z,20.08
2018-08-25T08:49:23.447Z,19.70
2018-08-25T08:50:23.435Z,19.52
2018-08-25T08:51:23.415Z,19.35
2018-08-25T08:52:23.351Z,19.27
2018-08-25T08:53:23.387Z,18.91
2018-08-25T08:54:23.404Z,18.74
2018-08-25T08:55:23.395Z,18.51
2018-08-25T08:56:23.352Z,18.36
2018-08-25T08:57:23.360Z,18.29
2018-08-25T08:58:23.354Z,18.19
2018-08-25T08:59:23.339Z,18.31
2018-08-25T09:00:23.327Z,18.28
2018-08-25T09:01:23.306Z,18.26
2018-08-25T09:02:23.318Z,18.31
2018-08-25T09:03:23.306Z,18.28
2018-08-25T09:04:23.335Z,18.26
2018-08-25T09:05:23.330Z,18.25
2018-08-25T09:06:23.247Z,18.32
2018-08-25T09:07:23.186Z,18.25
2018-08-25T09:08:23.219Z,18.28
2018-08-25T09:09:23.333Z,18.25
2018-08-25T09:10:23.215Z,18.35
2018-08-25T09:11:23.263Z,18.42
2018-08-25T09:12:23.186Z,18.66
2018-08-25T09:13:23.197Z,18.66
2018-08-25T09:14:23.157Z,18.76
2018-08-25T09:15:23.262Z,18.72
2018-08-25T09:16:23.152Z,18.83
2018-08-25T09:17:23.125Z,18.72
2018-08-25T09:18:23.114Z,18.84
2018-08-25T09:19:23.089Z,18.76
2018-08-25T09:20:23.108Z,18.76
2018-08-25T09:21:23.087Z,18.86
2018-08-25T09:22:23.029Z,18.86
2018-08-25T09:23:23.061Z,19.10
2018-08-25T09:24:23.004Z,19.21
2018-08-25T09:25:23.396Z,19.38
2018-08-25T09:26:23.046Z,19.45
2018-08-25T09:27:23.054Z,19.49
2018-08-25T09:28:22.997Z,19.38
2018-08-25T09:29:23.044Z,19.16
2018-08-25T09:30:22.959Z,19.12
2018-08-25T09:31:22.967Z,19.12
2018-08-25T09:32:22.964Z,19.07
2018-08-25T09:33:22.964Z,18.94
2018-08-25T09:34:22.962Z,18.94
2018-08-25T09:35:22.913Z,18.91
2018-08-25T09:36:23.016Z,19.07
2018-08-25T09:37:22.923Z,19.09
2018-08-25T09:38:22.894Z,19.38
2018-08-25T09:39:22.895Z,19.55
2018-08-25T09:40:22.895Z,19.78
2018-08-25T09:41:22.867Z,20.00
2018-08-25T09:42:22.855Z,20.17
2018-08-25T09:43:22.861Z,20.44
2018-08-25T09:44:22.794Z,20.58
2018-08-25T09:45:22.845Z,20.75
2018-08-25T09:46:22.821Z,20.79
2018-08-25T09:47:22.791Z,20.73
2018-08-25T09:48:22.784Z,20.60
2018-08-25T09:49:22.775Z,20.42
2018-08-25T09:50:22.794Z,20.37
2018-08-25T09:51:22.761Z,20.15
2018-08-25T09:52:22.754Z,20.05
2018-08-25T09:53:22.819Z,19.90
2018-08-25T09:54:22.721Z,19.80
2018-08-25T09:55:22.739Z,19.76
2018-08-25T09:56:22.716Z,19.65
2018-08-25T09:57:22.695Z,19.42
2018-08-25T09:58:22.761Z,19.40
2018-08-25T09:59:22.666Z,19.34
2018-08-25T10:00:22.682Z,19.38
2018-08-25T10:01:22.653Z,19.25
2018-08-25T10:02:22.662Z,19.47
2018-08-25T10:03:22.620Z,19.52
2018-08-25T10:04:22.618Z,19.52
2018-08-25T10:05:22.721Z,19.46
2018-08-25T10:06:22.590Z,19.24
2018-08-25T10:07:22.582Z,19.12
2018-08-25T10:08:22.580Z,18.94
2018-08-25T10:09:22.557Z,18.90
2018-08-25T10:10:22.599Z,18.74
2018-08-25T10:11:22.536Z,18.75
2018-08-25T10:12:22.525Z,18.83
2018-08-25T10:13:22.534Z,18.97
2018-08-25T10:14:22.508Z,19.20
2018-08-25T10:15:22.522Z,19.38
2018-08-25T10:16:22.503Z,19.40
2018-08-25T10:17:22.469Z,19.40
2018-08-25T10:18:22.477Z,19.58
2018-08-25T10:19:22.448Z,19.78
2018-08-25T10:20:22.459Z,19.75
2018-08-25T10:21:22.427Z,19.75
2018-08-25T10:22:22.379Z,19.65
2018-08-25T10:23:22.410Z,19.60
2018-08-25T10:24:22.415Z,19.55
2018-08-25T10:25:22.418Z,19.43
2018-08-25T10:26:22.380Z,19.53
2018-08-25T10:27:22.364Z,19.42
2018-08-25T10:28:22.353Z,19.49
2018-08-25T10:29:22.361Z,19.46
2018-08-25T10:30:22.380Z,19.45
2018-08-25T10:31:22.319Z,19.62
2018-08-25T10:32:22.312Z,19.58
2018-08-25T10:33:22.297Z,19.43
2018-08-25T10:34:22.293Z,19.40
2018-08-25T10:35:22.300Z,19.43
2018-08-25T10:36:22.275Z,19.47
2018-08-25T10:37:22.264Z,19.55
2018-08-25T10:38:22.248Z,19.52
2018-08-25T10:39:22.234Z,19.43
2018-08-25T10:40:22.224Z,19.46
2018-08-25T10:41:22.241Z,19.46
2018-08-25T10:42:22.207Z,19.39
2018-08-25T10:43:22.198Z,19.34
2018-08-25T10:44:22.201Z,19.39
2018-08-25T10:45:22.173Z,19.42
2018-08-25T10:46:22.184Z,19.45
2018-08-25T10:47:22.129Z,19.58
2018-08-25T10:48:22.147Z,19.57
2018-08-25T10:49:22.127Z,19.46
2018-08-25T10:50:22.128Z,19.50
2018-08-25T10:51:22.127Z,19.43
2018-08-25T10:52:22.098Z,19.46
2018-08-25T10:53:22.058Z,19.49
2018-08-25T10:54:22.093Z,19.52
2018-08-25T10:55:22.060Z,19.60
2018-08-25T10:56:22.081Z,19.55
2018-08-25T10:57:22.042Z,19.46
2018-08-25T10:58:21.990Z,19.35
2018-08-25T10:59:22.042Z,19.34
2018-08-25T11:00:22.061Z,19.34
2018-08-25T11:01:21.999Z,19.31
2018-08-25T11:02:21.998Z,19.27
2018-08-25T11:03:21.977Z,19.24
2018-08-25T11:04:21.983Z,19.27
2018-08-25T11:05:21.915Z,19.25
2018-08-25T11:06:21.935Z,19.32
2018-08-25T11:07:21.930Z,19.39
2018-08-25T11:08:21.920Z,19.46
2018-08-25T11:09:21.864Z,19.55
2018-08-25T11:10:21.907Z,19.47
2018-08-25T11:11:22.019Z,19.61
2018-08-25T11:12:21.876Z,19.83
2018-08-25T11:13:21.873Z,19.94
2018-08-25T11:14:21.850Z,20.15
2018-08-25T11:15:21.847Z,20.44
2018-08-25T11:16:21.837Z,20.72
2018-08-25T11:17:21.826Z,20.82
2018-08-25T11:18:21.804Z,20.91
2018-08-25T11:19:21.798Z,20.93
2018-08-25T11:20:21.791Z,20.81
2018-08-25T11:21:21.801Z,20.82
2018-08-25T11:22:21.775Z,20.72
2018-08-25T11:23:21.753Z,20.63
2018-08-25T11:24:21.743Z,20.63
2018-08-25T11:25:21.730Z,20.69
2018-08-25T11:26:21.743Z,20.68
2018-08-25T11:27:21.706Z,20.66
2018-08-25T11:28:21.702Z,20.79
2018-08-25T11:29:21.751Z,21.03
2018-08-25T11:30:21.679Z,21.27
2018-08-25T11:31:21.686Z,21.11
2018-08-25T11:32:21.665Z,21.12
2018-08-25T11:33:21.659Z,21.13
2018-08-25T11:34:21.641Z,21.08
2018-08-25T11:35:21.634Z,21.01
2018-08-25T11:36:21.717Z,20.98
2018-08-25T11:37:21.701Z,20.94
2018-08-25T11:38:21.609Z,20.81
2018-08-25T11:39:21.587Z,20.78
2018-08-25T11:40:21.579Z,20.72
2018-08-25T11:41:21.601Z,20.69
2018-08-25T11:42:21.551Z,20.56
2018-08-25T11:43:21.502Z,20.48
2018-08-25T11:44:21.530Z,20.34
2018-08-25T11:45:21.520Z,20.13
2018-08-25T11:46:21.486Z,20.31
2018-08-25T11:47:21.498Z,20.26
2018-08-25T11:48:21.492Z,20.30
2018-08-25T11:49:21.500Z,20.33
2018-08-25T11:50:21.476Z,20.26
2018-08-25T11:51:21.492Z,20.00
2018-08-25T11:52:21.453Z,19.92
2018-08-25T11:53:21.431Z,19.80
2018-08-25T11:54:21.428Z,19.72
2018-08-25T11:55:21.383Z,19.60
2018-08-25T11:56:21.431Z,19.60
2018-08-25T11:57:21.401Z,19.57
2018-08-25T11:58:21.383Z,19.70
2018-08-25T11:59:21.369Z,19.53
2018-08-25T12:00:21.362Z,19.38
2018-08-25T12:01:21.370Z,19.28
2018-08-25T12:02:21.410Z,19.24
2018-08-25T12:03:21.353Z,19.38
2018-08-25T12:04:21.288Z,19.40
2018-08-25T12:05:21.313Z,19.42
2018-08-25T12:06:21.317Z,19.34
2018-08-25T12:07:21.298Z,19.35
2018-08-25T12:08:21.236Z,19.39
2018-08-25T12:09:21.304Z,19.45
2018-08-25T12:10:21.272Z,19.47
2018-08-25T12:11:21.266Z,19.52
2018-08-25T12:12:21.245Z,19.67
2018-08-25T12:13:21.217Z,19.75
2018-08-25T12:14:21.178Z,19.87
2018-08-25T12:15:21.197Z,20.05
2018-08-25T12:16:21.285Z,20.23
2018-08-25T12:17:21.140Z,20.31
2018-08-25T12:18:21.123Z,20.33
2018-08-25T12:19:21.168Z,20.26
2018-08-25T12:20:21.201Z,20.23
2018-08-25T12:21:21.132Z,20.10
2018-08-25T12:22:21.147Z,20.13
2018-08-25T12:23:21.112Z,20.01
2018-08-25T12:24:21.136Z,20.10
2018-08-25T12:25:21.094Z,20.17
2018-08-25T12:26:21.083Z,20.15
2018-08-25T12:27:21.105Z,20.12
2018-08-25T12:28:21.070Z,20.26
2018-08-25T12:29:21.076Z,20.33
2018-08-25T12:30:21.035Z,20.48
2018-08-25T12:31:21.033Z,20.57
2018-08-25T12:32:21.040Z,20.53
2018-08-25T12:33:21.010Z,20.41
2018-08-25T12:34:20.955Z,20.41
2018-08-25T12:35:20.994Z,20.42
2018-08-25T12:36:20.972Z,20.51
2018-08-25T12:37:20.986Z,20.54
2018-08-25T12:38:20.956Z,20.69
2018-08-25T12:39:20.956Z,20.64
2018-08-25T12:40:20.981Z,20.76
2018-08-25T12:41:20.933Z,20.75
2018-08-25T12:42:20.880Z,20.79
2018-08-25T12:43:20.935Z,20.78
2018-08-25T12:44:20.887Z,20.68
2018-08-25T12:45:20.878Z,20.61
2018-08-25T12:46:20.830Z,20.41
2018-08-25T12:47:20.877Z,20.42
2018-08-25T12:48:20.843Z,20.48
2018-08-25T12:49:20.831Z,20.40
2018-08-25T12:50:20.815Z,20.35
2018-08-25T12:51:20.807Z,20.31
2018-08-25T12:52:20.829Z,20.40